createdAt,value
2022-08-03T03:16:57.693Z,10.77
2022-08-03T03:19:27.272Z,9.85
2022-08-03T03:21:56.602Z,10.48
2022-08-03T03:24:24.849Z,10.27
2022-08-03T03:26:53.426Z,10.40
2022-08-03T03:29:22.181Z,9.32
2022-08-03T03:31:50.646Z,10.32
2022-08-03T03:34:20.918Z,9.60
2022-08-03T03:36:49.566Z,9.65
2022-08-03T03:39:17.680Z,10.05
2022-08-03T03:41:46.094Z,9.45
2022-08-03T03:44:14.476Z,9.40
2022-08-03T03:46:42.745Z,8.57
2022-08-03T03:49:12.669Z,8.15
2022-08-03T03:51:42.198Z,9.27
2022-08-03T03:54:10.319Z,8.75
2022-08-03T03:56:38.787Z,8.20
2022-08-03T03:59:06.973Z,7.53
2022-08-03T04:01:35.190Z,7.60
2022-08-03T04:04:23.398Z,8.15
2022-08-03T04:07:10.089Z,8.27
2022-08-03T04:09:59.801Z,7.30
2022-08-03T04:12:39.261Z,7.68
2022-08-03T04:15:20.486Z,6.53
2022-08-03T04:17:50.322Z,6.57
2022-08-03T04:20:21.755Z,6.72
2022-08-03T04:22:53.822Z,7.03
2022-08-03T04:25:26.141Z,8.38
2022-08-03T04:28:07.922Z,7.97
2022-08-03T04:30:49.023Z,7.88
2022-08-03T04:33:18.666Z,8.32
2022-08-03T04:35:58.451Z,8.13
2022-08-03T04:38:34.588Z,10.75
2022-08-03T04:41:03.085Z,9.18
2022-08-03T04:43:34.610Z,8.65
2022-08-03T04:46:04.044Z,8.80
2022-08-03T04:48:32.321Z,8.10
2022-08-03T04:51:04.391Z,9.30
2022-08-03T04:53:34.024Z,9.30
2022-08-03T04:56:06.585Z,8.60
2022-08-03T04:58:34.750Z,7.32
2022-08-03T05:01:03.221Z,9.27
2022-08-03T05:03:32.665Z,10.30
2022-08-03T05:06:09.782Z,12.02
2022-08-03T05:08:46.053Z,10.75
2022-08-03T05:11:15.574Z,10.68
2022-08-03T05:13:43.836Z,10.95
2022-08-03T05:16:12.442Z,11.80
2022-08-03T05:18:40.598Z,11.95
2022-08-03T05:21:09.434Z,10.35
2022-08-03T05:23:37.972Z,10.73
2022-08-03T05:26:07.444Z,10.07
2022-08-03T05:28:35.604Z,10.30
2022-08-03T05:31:03.842Z,9.43
2022-08-03T05:33:32.030Z,9.27
2022-08-03T05:36:04.219Z,8.30
2022-08-03T05:38:34.628Z,9.00
2022-08-03T05:41:21.760Z,8.45
2022-08-03T05:43:54.854Z,8.10
2022-08-03T05:46:23.755Z,9.48
2022-08-03T05:48:52.244Z,10.68
2022-08-03T05:51:20.796Z,11.63
2022-08-03T05:53:48.994Z,15.05
2022-08-03T05:56:17.264Z,13.90
2022-08-03T05:58:47.220Z,14.27
2022-08-03T06:01:18.184Z,13.02
2022-08-03T06:03:46.508Z,12.50
2022-08-03T06:06:14.727Z,11.10
2022-08-03T06:08:43.995Z,10.55
2022-08-03T06:11:12.462Z,10.10
2022-08-03T06:13:41.282Z,10.32
2022-08-03T06:16:09.853Z,9.30
2022-08-03T06:18:41.559Z,9.73
2022-08-03T06:21:15.319Z,10.02
2022-08-03T06:23:54.055Z,9.45
2022-08-03T06:26:28.797Z,10.00
2022-08-03T06:28:57.271Z,9.52
2022-08-03T06:31:32.916Z,9.57
2022-08-03T06:34:33.509Z,8.70
2022-08-03T06:36:58.564Z,9.00
2022-08-03T06:39:30.563Z,9.52
2022-08-03T06:41:59.058Z,8.27
2022-08-03T06:44:27.212Z,9.20
2022-08-03T06:46:55.374Z,9.98
2022-08-03T06:49:24.996Z,11.35
2022-08-03T06:52:03.348Z,10.57
2022-08-03T06:54:33.483Z,9.57
2022-08-03T06:57:01.967Z,10.38
2022-08-03T07:00:10.411Z,11.15
2022-08-03T07:02:20.399Z,10.57
2022-08-03T07:04:51.032Z,12.35
2022-08-03T07:07:19.528Z,11.15
2022-08-03T07:09:57.767Z,11.05
2022-08-03T07:12:27.601Z,11.38
2022-08-03T07:15:00.359Z,10.10
2022-08-03T07:17:31.001Z,11.10
2022-08-03T07:20:01.709Z,11.30
2022-08-03T07:22:30.161Z,11.60
2022-08-03T07:24:58.649Z,12.35
2022-08-03T07:27:28.661Z,12.48
2022-08-03T07:29:57.328Z,12.15
2022-08-03T07:32:25.841Z,12.23
2022-08-03T07:34:59.900Z,12.05
2022-08-03T07:37:30.574Z,12.70
2022-08-03T07:39:58.883Z,12.25
2022-08-03T07:42:27.159Z,12.25
2022-08-03T07:44:55.287Z,12.23
2022-08-03T07:47:25.650Z,12.40
2022-08-03T07:50:03.371Z,13.52
2022-08-03T07:52:53.796Z,14.77
2022-08-03T07:55:24.498Z,13.30
2022-08-03T07:58:06.134Z,13.07
2022-08-03T08:00:34.660Z,13.65
2022-08-03T08:03:03.393Z,12.63
2022-08-03T08:05:32.134Z,12.48
2022-08-03T08:08:01.924Z,13.05
2022-08-03T08:10:30.504Z,13.82
2022-08-03T08:12:59.051Z,12.50
2022-08-03T08:15:27.327Z,12.88
2022-08-03T08:17:58.753Z,12.27
2022-08-03T08:20:31.415Z,12.52
2022-08-03T08:23:03.531Z,13.90
2022-08-03T08:25:45.433Z,13.05
2022-08-03T08:28:29.190Z,12.35
2022-08-03T08:31:01.363Z,11.77
2022-08-03T08:33:47.874Z,11.65
2022-08-03T08:36:17.749Z,11.35
2022-08-03T08:38:47.428Z,10.40
2022-08-03T08:41:16.659Z,8.68
2022-08-03T08:43:45.128Z,9.45
2022-08-03T08:46:23.463Z,8.95
2022-08-03T08:48:53.343Z,8.23
2022-08-03T08:51:23.449Z,8.45
2022-08-03T08:54:13.821Z,8.18
2022-08-03T08:56:42.077Z,7.30
2022-08-03T08:59:10.352Z,7.15
2022-08-03T09:01:38.555Z,6.78
2022-08-03T09:04:09.534Z,5.15
2022-08-03T09:06:37.785Z,4.30
2022-08-03T09:09:08.242Z,4.80
2022-08-03T09:12:00.463Z,3.53
2022-08-03T09:14:34.105Z,2.95
2022-08-03T09:17:16.975Z,3.47
2022-08-03T09:20:06.027Z,4.00
2022-08-03T09:22:34.547Z,4.72
2022-08-03T09:25:23.747Z,4.78
2022-08-03T09:27:53.691Z,4.15
2022-08-03T09:30:33.767Z,4.50
2022-08-03T09:33:04.275Z,4.07
2022-08-03T09:38:26.363Z,4.38
2022-08-03T09:40:59.445Z,4.15
2022-08-03T09:43:46.655Z,4.43
2022-08-03T09:46:14.844Z,4.32
2022-08-03T09:48:43.029Z,4.45
2022-08-03T09:51:33.358Z,5.40
2022-08-03T09:54:05.573Z,4.80
2022-08-03T09:56:43.330Z,4.93
2022-08-03T09:59:14.844Z,4.80
2022-08-03T10:01:43.276Z,4.70
2022-08-03T10:04:17.123Z,4.95
2022-08-03T10:06:46.427Z,5.13
2022-08-03T10:09:17.628Z,4.70
2022-08-03T10:11:47.598Z,4.95
2022-08-03T10:14:19.982Z,4.70
2022-08-03T10:16:49.145Z,4.90
2022-08-03T10:19:17.862Z,4.65
2022-08-03T10:21:50.918Z,4.90
2022-08-03T10:24:25.512Z,5.00
2022-08-03T10:26:58.105Z,4.60
2022-08-03T10:29:29.571Z,4.93
2022-08-03T10:32:00.546Z,5.88
2022-08-03T10:34:35.139Z,5.93
2022-08-03T10:37:09.042Z,4.93
2022-08-03T10:39:37.621Z,5.22
2022-08-03T10:42:14.501Z,4.85
2022-08-03T10:44:44.626Z,4.97
2022-08-03T10:47:13.069Z,4.60
2022-08-03T10:49:41.739Z,4.90
2022-08-03T10:52:13.711Z,4.78
2022-08-03T10:55:16.865Z,5.03
2022-08-03T10:57:48.911Z,5.00
2022-08-03T11:00:21.201Z,5.28
2022-08-03T11:03:11.181Z,4.93
2022-08-03T11:05:42.251Z,5.32
2022-08-03T11:08:24.988Z,5.07
2022-08-03T11:10:54.656Z,5.25
2022-08-03T11:13:25.104Z,5.78
2022-08-03T11:16:00.103Z,6.32
2022-08-03T11:18:31.607Z,5.97
2022-08-03T11:21:00.999Z,6.50
2022-08-03T11:24:04.598Z,6.20
2022-08-03T11:26:31.696Z,5.93
2022-08-03T11:29:28.961Z,5.70
2022-08-03T11:31:58.661Z,5.90
2022-08-03T11:34:27.383Z,6.22
2022-08-03T11:37:27.515Z,5.75
2022-08-03T11:39:58.241Z,5.80
2022-08-03T11:42:48.181Z,5.97
2022-08-03T11:45:16.631Z,5.65
2022-08-03T11:47:50.678Z,6.38
2022-08-03T11:50:21.305Z,5.70
2022-08-03T11:52:50.911Z,6.15
2022-08-03T11:55:21.988Z,6.03
2022-08-03T11:59:17.704Z,6.22
2022-08-03T12:00:38.918Z,6.00
2022-08-03T12:03:09.838Z,6.32
2022-08-03T12:05:51.732Z,5.95
2022-08-03T12:08:32.268Z,5.70
2022-08-03T12:11:03.147Z,5.90
2022-08-03T12:14:37.326Z,6.22
2022-08-03T12:16:28.845Z,6.68
2022-08-03T12:19:00.260Z,5.60
2022-08-03T12:21:28.963Z,5.95
2022-08-03T12:24:01.220Z,6.55
2022-08-03T12:26:30.317Z,5.68
2022-08-03T12:28:58.615Z,6.32
2022-08-03T12:31:26.832Z,6.20
2022-08-03T12:34:02.809Z,5.75
2022-08-03T12:36:32.922Z,6.20
2022-08-03T12:39:02.603Z,5.60
2022-08-03T12:41:34.138Z,5.18
2022-08-03T12:44:04.476Z,5.72
2022-08-03T12:46:34.872Z,5.95
2022-08-03T12:49:07.417Z,5.88
2022-08-03T12:51:37.640Z,6.43
2022-08-03T12:54:06.755Z,6.72
2022-08-03T12:56:35.171Z,6.97
2022-08-03T12:59:18.252Z,6.60
2022-08-03T13:01:55.294Z,6.43
2022-08-03T13:04:30.065Z,6.47
2022-08-03T13:07:03.526Z,5.93
2022-08-03T13:09:42.699Z,6.38
2022-08-03T13:12:13.206Z,6.78
2022-08-03T13:14:42.126Z,6.10
2022-08-03T13:17:10.796Z,6.50
2022-08-03T13:19:41.487Z,5.90
2022-08-03T13:22:13.748Z,6.30
2022-08-03T13:24:42.159Z,6.10
2022-08-03T13:28:01.233Z,6.28
2022-08-03T13:29:59.245Z,5.90
2022-08-03T13:32:27.466Z,5.93
2022-08-03T13:34:57.185Z,6.13
2022-08-03T13:37:25.840Z,6.07
2022-08-03T13:39:58.787Z,6.32
2022-08-03T13:42:29.469Z,5.68
2022-08-03T13:44:57.634Z,6.07
2022-08-03T13:47:25.936Z,6.10
2022-08-03T13:50:01.170Z,6.80
2022-08-03T13:52:32.714Z,7.60
2022-08-03T13:55:01.291Z,8.13
2022-08-03T13:58:04.030Z,8.18
2022-08-03T14:00:26.671Z,8.73
2022-08-03T14:03:03.999Z,7.78
2022-08-03T14:05:34.162Z,8.00
2022-08-03T14:08:05.639Z,7.95
2022-08-03T14:10:35.807Z,7.90
2022-08-03T14:13:04.238Z,7.43
2022-08-03T14:15:38.002Z,6.97
2022-08-03T14:18:15.393Z,6.97
2022-08-03T14:20:48.790Z,6.97
2022-08-03T14:23:20.010Z,6.90
2022-08-03T14:25:51.745Z,7.18
2022-08-03T14:28:23.639Z,7.32
2022-08-03T14:30:52.299Z,7.25
2022-08-03T14:33:20.542Z,7.18
2022-08-03T14:35:49.270Z,7.40
2022-08-03T14:38:17.915Z,6.68
2022-08-03T14:40:47.446Z,6.85
2022-08-03T14:43:17.943Z,6.85
2022-08-03T14:45:46.119Z,6.80
2022-08-03T14:50:27.954Z,7.25
2022-08-03T14:51:02.455Z,6.57
2022-08-03T14:53:30.673Z,6.95
2022-08-03T14:56:00.151Z,7.25
2022-08-03T14:58:28.378Z,7.18
2022-08-03T15:00:57.413Z,7.07
2022-08-03T15:03:26.446Z,6.45
2022-08-03T15:05:55.676Z,6.70
2022-08-03T15:08:25.675Z,5.70
2022-08-03T15:10:54.651Z,6.82
2022-08-03T15:13:25.355Z,7.20
2022-08-03T15:15:53.597Z,6.70
2022-08-03T15:18:21.675Z,6.85
2022-08-03T15:20:50.937Z,6.28
2022-08-03T15:23:19.741Z,6.50
2022-08-03T15:26:28.054Z,6.03
2022-08-03T15:28:38.706Z,6.72
2022-08-03T15:31:07.549Z,6.38
2022-08-03T15:33:35.661Z,6.50
2022-08-03T15:36:04.468Z,6.10
2022-08-03T15:38:32.602Z,6.55
2022-08-03T15:41:00.715Z,5.10
2022-08-03T15:43:28.857Z,4.97
2022-08-03T15:46:27.646Z,5.25
2022-08-03T15:48:47.424Z,5.40
2022-08-03T15:51:15.643Z,5.20
2022-08-03T15:53:43.846Z,4.93
2022-08-03T15:56:18.164Z,4.35
2022-08-03T15:59:03.691Z,4.50
2022-08-03T16:01:36.546Z,4.30
2022-08-03T16:04:04.877Z,4.68
2022-08-03T16:06:35.991Z,4.82
2022-08-03T16:09:22.856Z,4.75
2022-08-03T16:11:54.922Z,4.50
2022-08-03T16:14:32.338Z,4.55
2022-08-03T16:17:05.456Z,4.95
2022-08-03T16:19:33.644Z,4.88
2022-08-03T16:22:01.868Z,4.18
2022-08-03T16:24:31.821Z,4.95
2022-08-03T16:27:00.448Z,4.65
2022-08-03T16:29:29.581Z,5.30
2022-08-03T16:31:57.822Z,4.93
2022-08-03T16:34:27.310Z,4.68
2022-08-03T16:36:55.728Z,4.72
2022-08-03T16:39:23.966Z,4.90
2022-08-03T16:41:54.347Z,4.75
2022-08-03T16:44:30.046Z,4.90
2022-08-03T16:46:58.601Z,5.38
2022-08-03T16:49:55.161Z,5.05
2022-08-03T16:52:17.898Z,5.43
2022-08-03T16:54:50.701Z,5.03
2022-08-03T16:57:56.447Z,5.50
2022-08-03T17:00:33.890Z,6.30
2022-08-03T17:03:04.042Z,5.70
2022-08-03T17:05:47.397Z,5.25
2022-08-03T17:08:16.067Z,5.75
2022-08-03T17:10:45.443Z,5.55
2022-08-03T17:13:20.789Z,5.45
2022-08-03T17:16:01.591Z,5.18
2022-08-03T17:18:35.201Z,5.72
2022-08-03T17:21:08.018Z,5.18
2022-08-03T17:23:45.482Z,5.32
2022-08-03T17:26:21.560Z,5.70
2022-08-03T17:28:57.690Z,6.30
2022-08-03T17:31:31.355Z,7.13
2022-08-03T17:34:04.485Z,7.07
2022-08-03T17:37:02.672Z,6.70
2022-08-03T17:39:42.131Z,6.63
2022-08-03T17:42:29.006Z,6.45
2022-08-03T17:45:02.539Z,6.88
2022-08-03T17:47:42.735Z,6.63
2022-08-03T17:50:25.026Z,6.93
2022-08-03T17:53:01.509Z,6.88
2022-08-03T17:55:56.441Z,7.18
2022-08-03T17:58:43.695Z,7.38
2022-08-03T18:02:03.647Z,7.05
2022-08-03T18:04:29.848Z,6.65
2022-08-03T18:07:11.278Z,7.25
2022-08-03T18:10:04.288Z,7.07
2022-08-03T18:12:42.823Z,8.00
2022-08-03T18:15:22.153Z,8.52
2022-08-03T18:17:55.200Z,8.68
2022-08-03T18:20:33.172Z,8.10
2022-08-03T18:23:10.282Z,7.97
2022-08-03T18:25:50.057Z,7.88
2022-08-03T18:28:23.105Z,7.60
2022-08-03T18:30:54.133Z,8.20
2022-08-03T18:34:19.855Z,7.80
2022-08-03T18:39:03.253Z,8.00
2022-08-03T18:44:52.820Z,7.75
2022-08-03T18:47:25.294Z,8.73
2022-08-03T18:50:08.386Z,8.40
2022-08-03T18:52:45.697Z,8.13
2022-08-03T18:55:20.591Z,8.57
2022-08-03T18:57:56.693Z,8.45
2022-08-03T19:00:34.249Z,9.10
2022-08-03T19:03:24.823Z,9.20
2022-08-03T19:06:14.589Z,9.20
2022-08-03T19:08:50.912Z,9.45
2022-08-03T19:11:28.290Z,9.40
2022-08-03T19:14:00.504Z,9.30
2022-08-03T19:16:35.658Z,10.48
2022-08-03T19:19:10.944Z,10.15
2022-08-03T19:21:42.803Z,9.90
2022-08-03T19:24:12.755Z,9.73
2022-08-03T19:26:42.370Z,9.57
2022-08-03T19:29:15.336Z,9.98
2022-08-03T19:31:58.942Z,10.18
2022-08-03T19:34:29.222Z,10.90
2022-08-03T19:36:58.415Z,10.57
2022-08-03T19:39:27.283Z,10.77
2022-08-03T19:42:08.116Z,10.70
2022-08-03T19:44:41.009Z,10.88
2022-08-03T19:47:17.147Z,10.90
2022-08-03T19:49:56.982Z,10.52
2022-08-03T19:52:36.706Z,10.98
2022-08-03T19:55:09.481Z,11.05
2022-08-03T19:57:43.863Z,11.10
2022-08-03T20:00:19.523Z,10.85
2022-08-03T20:02:50.907Z,11.07
2022-08-03T20:05:19.563Z,11.48
2022-08-03T20:07:48.679Z,10.73
2022-08-03T20:10:17.966Z,11.48
2022-08-03T20:12:47.160Z,11.50
2022-08-03T20:15:18.260Z,11.27
2022-08-03T20:17:59.275Z,10.90
2022-08-03T20:20:29.903Z,11.38
2022-08-03T20:22:59.865Z,11.85
2022-08-03T20:25:38.297Z,11.38
2022-08-03T20:28:14.615Z,11.07
2022-08-03T20:30:47.306Z,12.45
2022-08-03T20:33:18.630Z,11.23
2022-08-03T20:35:49.763Z,11.82
2022-08-03T20:38:19.064Z,11.60
2022-08-03T20:40:48.300Z,11.57
2022-08-03T20:43:19.985Z,12.07
2022-08-03T20:45:59.761Z,11.23
2022-08-03T20:48:38.305Z,11.20
2022-08-03T20:54:00.204Z,11.27
2022-08-03T20:56:33.527Z,11.95
2022-08-03T20:59:04.854Z,11.30
2022-08-03T21:01:36.147Z,11.65
2022-08-03T21:04:06.749Z,11.57
2022-08-03T21:06:39.678Z,11.73
2022-08-03T21:09:09.441Z,11.98
2022-08-03T21:11:44.264Z,12.60
2022-08-03T21:12:58.650Z,7.95
2022-08-03T21:12:58.870Z,8.50
2022-08-03T21:13:07.508Z,11.70
2022-08-03T21:14:18.231Z,11.68
2022-08-03T21:16:51.544Z,12.57
2022-08-03T21:19:22.341Z,11.90
2022-08-03T21:21:50.952Z,12.23
2022-08-03T21:24:22.815Z,12.88
2022-08-03T21:26:54.787Z,12.52
2022-08-03T21:29:23.092Z,12.57
2022-08-03T21:31:52.636Z,12.00
2022-08-03T21:34:21.797Z,11.32
2022-08-03T21:36:50.605Z,11.98
2022-08-03T21:39:18.819Z,12.52
2022-08-03T21:41:47.403Z,13.43
2022-08-03T21:44:18.185Z,11.70
2022-08-03T21:47:00.105Z,12.00
2022-08-03T21:50:04.203Z,12.05
2022-08-03T21:52:23.732Z,12.70
2022-08-03T21:54:55.276Z,12.70
2022-08-03T21:57:26.001Z,12.43
2022-08-03T21:59:55.827Z,12.73
2022-08-03T22:02:31.400Z,12.63
2022-08-03T22:05:00.666Z,12.68
2022-08-03T22:07:33.742Z,12.43
2022-08-03T22:10:03.978Z,12.73
